Time;durP1;ratioP1;P1;durP2;ratioP2;P2;SDS_P1;SDS_P2;PMS_P1;PMS_P2;Temp;Humidity;BMP_temperature;BMP_pressure;BME280_temperature;BME280_humidity;BME280_pressure;Samples;Min_cycle;Max_cycle;Signal;HPM_P1;HPM_P2
2021/06/17 05:12:14;;;;;;;3.55;3.00;;;;;;;18.21;87.65;95030.16;4922418;29;20588;-71
2021/06/17 05:14:39;;;;;;;3.47;3.03;;;;;;;18.30;86.45;95026.25;4917502;29;20031;-72
2021/06/17 05:17:05;;;;;;;4.20;3.28;;;;;;;18.54;86.13;95029.88;4901213;29;20396;-74
2021/06/17 05:19:30;;;;;;;3.42;2.63;;;;;;;18.85;84.74;95034.97;4933073;29;20027;-73
2021/06/17 05:21:56;;;;;;;3.28;2.97;;;;;;;18.68;85.59;95042.66;4901112;29;20023;-73
2021/06/17 05:24:21;;;;;;;3.50;3.20;;;;;;;18.74;85.91;95039.16;4917543;29;20039;-76
2021/06/17 05:26:47;;;;;;;4.05;2.75;;;;;;;18.02;87.66;95038.97;4950066;29;20624;-73
2021/06/17 05:29:13;;;;;;;3.45;3.13;;;;;;;18.71;87.99;95044.03;4933203;29;20029;-76
2021/06/17 05:31:38;;;;;;;3.13;2.83;;;;;;;18.97;84.66;95048.97;4899723;29;20039;-74
2021/06/17 05:34:04;;;;;;;3.33;3.03;;;;;;;19.69;83.76;95047.25;4932014;29;20031;-74
2021/06/17 05:36:29;;;;;;;6.47;2.58;;;;;;;19.46;83.18;95047.97;4932049;29;20432;-74
2021/06/17 05:38:55;;;;;;;5.25;2.58;;;;;;;19.80;82.84;95051.75;4916707;29;20544;-74
2021/06/17 05:41:20;;;;;;;8.10;2.65;;;;;;;20.47;80.11;95053.13;4901062;29;20031;-74
2021/06/17 05:43:46;;;;;;;2.22;2.03;;;;;;;20.68;79.84;95049.88;4932987;29;20408;-74
2021/06/17 05:46:11;;;;;;;3.03;2.17;;;;;;;21.08;78.14;95041.25;4930765;29;20031;-74
2021/06/17 05:48:37;;;;;;;1.98;1.75;;;;;;;21.74;76.67;95051.19;4930556;29;20081;-74
2021/06/17 05:51:02;;;;;;;4.43;2.30;;;;;;;21.76;74.96;95057.06;4915171;29;20019;-74
2021/06/17 05:53:28;;;;;;;4.10;2.78;;;;;;;21.33;76.15;95066.28;4915577;29;20027;-74
2021/06/17 05:55:53;;;;;;;2.53;2.00;;;;;;;21.10;78.00;95066.34;4931665;29;20046;-76
2021/06/17 05:58:19;;;;;;;2.92;2.13;;;;;;;21.34;74.88;95059.19;4915201;29;20035;-75
2021/06/17 06:00:44;;;;;;;3.05;2.38;;;;;;;21.04;76.77;95059.34;4928532;29;20043;-76
2021/06/17 06:03:10;;;;;;;2.10;1.98;;;;;;;21.36;77.02;95054.47;4913434;29;20110;-76
2021/06/17 06:05:35;;;;;;;2.88;2.55;;;;;;;22.03;75.50;95061.50;4928056;29;20039;-76
2021/06/17 06:08:02;;;;;;;2.47;1.67;;;;;;;23.35;71.29;95052.81;4929625;29;20058;-74
2021/06/17 06:10:28;;;;;;;1.70;1.58;;;;;;;24.63;69.36;95054.56;4913262;29;20489;-76
2021/06/17 06:12:54;;;;;;;1.83;1.70;;;;;;;25.71;65.00;95052.19;4925166;29;20030;-78
2021/06/17 06:15:19;;;;;;;1.85;1.70;;;;;;;24.30;64.74;95058.31;4914846;29;20474;-77
2021/06/17 06:17:46;;;;;;;1.50;1.40;;;;;;;24.73;62.79;95054.63;4929305;29;20520;-76
2021/06/17 06:20:12;;;;;;;1.67;1.58;;;;;;;25.34;63.68;95054.94;4915159;29;20031;-80
2021/06/17 06:22:37;;;;;;;2.42;1.35;;;;;;;25.92;64.73;95049.28;4929621;29;20107;-80
2021/06/17 06:25:04;;;;;;;2.17;1.40;;;;;;;26.30;60.80;95055.97;4915717;29;20039;-80
2021/06/17 06:27:29;;;;;;;2.25;2.05;;;;;;;25.07;62.22;95055.13;4899893;29;20110;-78
2021/06/17 06:29:59;;;;;;;2.58;1.50;;;;;;;25.23;64.65;95062.09;4949213;29;20432;-81
2021/06/17 06:32:25;;;;;;;5.03;1.98;;;;;;;24.42;66.06;95055.47;4932374;29;20020;-81
2021/06/17 06:34:50;;;;;;;2.53;1.98;;;;;;;25.22;64.42;95057.03;4900594;29;20050;-81
2021/06/17 06:37:16;;;;;;;3.17;2.10;;;;;;;25.31;65.04;95066.06;4930780;29;20098;-81
2021/06/17 06:39:41;;;;;;;3.60;2.03;;;;;;;25.45;63.92;95060.03;4916687;29;20642;-78
2021/06/17 06:42:07;;;;;;;1.70;1.60;;;;;;;25.97;60.71;95065.25;4916089;29;20042;-83
2021/06/17 06:44:33;;;;;;;2.28;2.08;;;;;;;26.08;64.29;95060.72;4900843;29;20027;-83
2021/06/17 06:46:59;;;;;;;2.20;2.00;;;;;;;26.01;61.34;95071.59;4933364;29;20035;-83
2021/06/17 06:49:25;;;;;;;2.38;2.17;;;;;;;25.14;62.92;95069.72;4900804;29;20504;-79
2021/06/17 06:51:50;;;;;;;2.17;2.03;;;;;;;25.73;62.74;95065.97;4949485;29;20031;-87
2021/06/17 06:54:18;;;;;;;2.20;1.88;;;;;;;24.99;65.73;95079.44;4916659;29;20453;-84
2021/06/17 06:56:44;;;;;;;3.08;2.35;;;;;;;25.99;62.51;95070.28;4916941;29;20031;-83
2021/06/17 06:59:09;;;;;;;2.42;2.15;;;;;;;25.97;60.56;95065.25;4916592;29;20154;-80
2021/06/17 07:01:37;;;;;;;4.82;2.90;;;;;;;25.64;62.05;95055.06;4916395;29;20027;-79
2021/06/17 07:04:03;;;;;;;3.58;2.78;;;;;;;25.61;60.79;95063.56;4901019;29;20061;-79
2021/06/17 07:06:29;;;;;;;2.95;2.65;;;;;;;26.13;61.85;95061.53;4931759;29;20037;-82
2021/06/17 07:08:54;;;;;;;2.40;2.20;;;;;;;26.70;62.00;95061.28;4932383;29;20044;-84
2021/06/17 07:11:20;;;;;;;2.60;2.25;;;;;;;29.92;52.09;95063.72;4915575;29;20039;-74
2021/06/17 07:13:45;;;;;;;1.90;1.80;;;;;;;36.15;39.16;95070.31;4915823;29;20043;-86
2021/06/17 07:16:11;;;;;;;3.10;1.90;;;;;;;42.17;29.83;95071.19;4931585;29;20042;-79
2021/06/17 07:18:36;;;;;;;2.47;2.28;;;;;;;45.44;24.15;95076.78;4915784;29;20023;-77
2021/06/17 07:21:02;;;;;;;1.88;1.77;;;;;;;47.93;23.07;95077.38;4936195;28;20027;-79
2021/06/17 07:23:29;;;;;;;3.13;2.88;;;;;;;46.63;21.70;95076.25;4914634;29;20382;-80
2021/06/17 07:25:55;;;;;;;3.70;2.72;;;;;;;44.69;25.19;95072.31;4915396;29;20576;-78
2021/06/17 07:28:20;;;;;;;2.10;1.90;;;;;;;46.94;21.94;95073.38;4914182;29;20148;-84
2021/06/17 07:30:46;;;;;;;1.77;1.67;;;;;;;43.27;24.58;95077.97;4933547;29;20429;-76
2021/06/17 07:33:11;;;;;;;3.38;2.00;;;;;;;34.13;35.14;95066.47;4933906;29;20047;-79
2021/06/17 07:35:37;;;;;;;2.05;1.85;;;;;;;29.78;46.00;95066.28;4934848;29;20082;-78
2021/06/17 07:38:03;;;;;;;3.97;1.88;;;;;;;28.19;52.04;95058.56;4935058;29;20031;-79
2021/06/17 07:40:28;;;;;;;2.30;2.10;;;;;;;26.81;56.30;95061.28;4934688;29;20019;-80
2021/06/17 07:42:54;;;;;;;2.75;1.88;;;;;;;27.15;56.58;95057.72;4935536;29;20420;-79
2021/06/17 07:45:19;;;;;;;2.42;2.22;;;;;;;27.95;55.91;95061.09;4934897;29;20409;-80
2021/06/17 07:47:45;;;;;;;2.42;2.22;;;;;;;26.14;56.85;95054.34;4952323;29;20027;-77
2021/06/17 07:50:11;;;;;;;2.35;2.17;;;;;;;26.86;58.75;95056.75;4918717;29;20767;-81
2021/06/17 07:52:36;;;;;;;2.33;2.13;;;;;;;26.60;57.59;95055.97;4934830;29;20497;-81
2021/06/17 07:55:03;;;;;;;3.50;2.47;;;;;;;26.18;57.19;95050.13;4934672;29;20031;-79
2021/06/17 07:57:29;;;;;;;2.58;2.05;;;;;;;27.51;56.15;95062.94;4934419;29;20033;-81
2021/06/17 07:59:54;;;;;;;3.03;2.17;;;;;;;27.77;56.96;95055.63;4934796;29;20027;-82
2021/06/17 08:02:20;;;;;;;4.20;2.45;;;;;;;28.17;55.92;95060.69;4934704;29;20412;-83
2021/06/17 08:04:45;;;;;;;2.70;2.50;;;;;;;27.94;54.41;95059.50;4934768;29;20023;-81
2021/06/17 08:07:11;;;;;;;3.40;2.53;;;;;;;27.62;54.50;95057.28;4934326;29;20027;-82
2021/06/17 08:09:36;;;;;;;3.13;2.58;;;;;;;27.72;54.55;95059.09;4934100;29;20434;-78
2021/06/17 08:12:02;;;;;;;3.03;2.50;;;;;;;28.00;56.52;95049.63;4934576;29;20385;-79
2021/06/17 08:14:29;;;;;;;2.65;2.25;;;;;;;27.19;57.38;95050.00;4934251;29;20035;-82
2021/06/17 08:16:55;;;;;;;2.72;2.53;;;;;;;27.73;53.35;95045.53;4934299;29;20386;-76
2021/06/17 08:19:27;;;;;;;3.17;2.20;;;;;;;28.21;55.18;95051.88;4918494;29;20027;-76
2021/06/17 08:21:53;;;;;;;2.20;2.00;;;;;;;27.97;56.21;95045.63;4919498;29;20167;-73
2021/06/17 08:24:18;;;;;;;1.88;1.77;;;;;;;28.73;54.31;95045.06;4934379;29;20142;-77
2021/06/17 08:26:44;;;;;;;5.60;2.50;;;;;;;28.96;51.35;95046.16;4917978;29;20420;-85
2021/06/17 08:29:10;;;;;;;2.58;2.10;;;;;;;28.12;51.54;95042.91;4933951;29;20039;-80
2021/06/17 08:31:38;;;;;;;2.80;2.45;;;;;;;29.01;50.58;95048.78;4934573;29;20042;-85
2021/06/17 08:34:03;;;;;;;2.17;2.05;;;;;;;28.43;51.67;95039.97;4918989;29;20082;-82
2021/06/17 08:36:29;;;;;;;2.47;2.13;;;;;;;29.00;52.81;95047.16;4933927;29;20039;-74
2021/06/17 08:38:54;;;;;;;4.00;2.53;;;;;;;28.80;52.95;95042.88;4934363;29;20665;-79
2021/06/17 08:41:20;;;;;;;2.45;2.25;;;;;;;29.02;53.50;95043.16;4917013;29;20058;-80
2021/06/17 08:43:45;;;;;;;3.85;2.17;;;;;;;29.42;51.50;95044.56;4918466;29;20038;-77
2021/06/17 08:46:11;;;;;;;2.65;2.30;;;;;;;29.25;50.70;95033.59;4934027;29;20524;-85
2021/06/17 08:48:36;;;;;;;2.42;2.20;;;;;;;28.50;51.47;95035.13;4934263;29;20055;-77
2021/06/17 08:51:02;;;;;;;2.83;2.60;;;;;;;27.30;54.15;95018.81;4933747;29;20031;-87
2021/06/17 08:53:28;;;;;;;2.40;2.17;;;;;;;28.06;55.82;95032.56;4918460;29;20027;-75
2021/06/17 08:55:53;;;;;;;4.25;2.00;;;;;;;28.21;53.84;95013.78;4917750;29;20038;-73
2021/06/17 08:58:19;;;;;;;1.77;1.67;;;;;;;28.08;54.04;95023.19;4933501;29;20043;-82
2021/06/17 09:01:03;;;;;;;2.50;2.30;;;;;;;28.59;54.01;95017.44;4933686;29;20031;-77
2021/06/17 09:03:47;;;;;;;2.90;2.17;;;;;;;28.78;54.46;95019.13;4933737;29;20031;-80
2021/06/17 09:06:34;;;;;;;2.40;1.92;;;;;;;28.66;51.31;95015.25;4933206;29;20529;-76
2021/06/17 09:09:00;;;;;;;2.60;2.40;;;;;;;28.20;50.65;95009.50;4930046;29;20062;-89
2021/06/17 09:11:26;;;;;;;4.15;2.58;;;;;;;28.37;55.71;95011.78;4913419;29;20028;-78
2021/06/17 09:13:51;;;;;;;4.07;2.55;;;;;;;28.71;54.62;95010.66;4929224;29;20064;-78
2021/06/17 09:16:26;;;;;;;2.33;2.13;;;;;;;29.05;54.23;95009.78;4929094;29;20039;-75
2021/06/17 09:18:52;;;;;;;2.28;2.05;;;;;;;29.35;51.64;95005.97;4913511;29;20043;-73
2021/06/17 09:21:17;;;;;;;2.80;2.30;;;;;;;28.74;51.65;95012.75;4913402;29;20028;-72
2021/06/17 09:23:44;;;;;;;2.75;2.17;;;;;;;28.13;51.82;95004.50;4912265;29;20035;-72
2021/06/17 09:26:18;;;;;;;2.40;2.17;;;;;;;28.48;54.99;95006.06;4897506;29;20072;-74
2021/06/17 09:28:47;;;;;;;2.50;2.30;;;;;;;28.35;52.88;94997.94;4913379;29;20031;-77
2021/06/17 09:31:21;;;;;;;4.22;2.67;;;;;;;28.20;53.45;94998.84;4929196;29;20473;-75
2021/06/17 09:34:03;;;;;;;2.50;2.03;;;;;;;28.81;52.19;94992.94;4928948;29;20102;-80
2021/06/17 09:36:33;;;;;;;2.00;1.90;;;;;;;28.52;51.73;94995.63;4912263;29;20046;-73
2021/06/17 09:39:02;;;;;;;2.80;2.00;;;;;;;28.25;51.81;94993.50;4928600;29;20031;-78
2021/06/17 09:41:30;;;;;;;2.65;2.05;;;;;;;28.63;52.18;94999.78;4928316;29;20035;-78
2021/06/17 09:43:56;;;;;;;2.25;2.08;;;;;;;28.52;51.66;94985.75;4930190;29;20032;-74
2021/06/17 09:46:22;;;;;;;2.47;1.92;;;;;;;28.91;52.20;94980.31;4928643;29;20115;-72
2021/06/17 09:48:49;;;;;;;3.17;1.83;;;;;;;28.94;51.74;94979.75;4894318;29;20020;-77
2021/06/17 09:51:36;;;;;;;2.38;2.17;;;;;;;29.01;50.15;94984.72;4896723;29;20131;-71
2021/06/17 09:54:20;;;;;;;2.22;2.03;;;;;;;29.19;47.84;94978.63;4912679;29;20083;-75
2021/06/17 09:56:55;;;;;;;3.08;2.13;;;;;;;28.79;49.94;94977.25;4912706;29;20497;-82
2021/06/17 09:59:49;;;;;;;4.00;1.98;;;;;;;29.00;49.76;94977.78;4929750;29;20132;-72
2021/06/17 10:02:24;;;;;;;4.35;2.13;;;;;;;29.13;51.56;94969.09;4912283;29;20028;-75
2021/06/17 10:04:49;;;;;;;4.20;2.35;;;;;;;29.44;48.39;94967.66;4913707;29;20066;-76
2021/06/17 10:07:18;;;;;;;2.10;1.90;;;;;;;29.52;46.79;94966.22;4912044;29;20490;-76
2021/06/17 10:09:44;;;;;;;2.72;2.05;;;;;;;28.47;47.05;94969.81;4916078;29;20046;-72
2021/06/17 10:12:10;;;;;;;2.50;1.70;;;;;;;27.35;48.49;94960.25;4930768;29;20114;-73
2021/06/17 10:14:36;;;;;;;3.15;2.20;;;;;;;27.70;50.31;94954.75;4932175;29;20035;-73
2021/06/17 10:17:03;;;;;;;4.88;1.67;;;;;;;27.95;49.08;94943.88;4930651;29;20454;-74
2021/06/17 10:19:31;;;;;;;2.20;2.00;;;;;;;28.17;48.64;94954.13;4915195;29;20050;-72
2021/06/17 10:21:56;;;;;;;2.80;1.70;;;;;;;28.78;49.40;94944.44;4930824;29;20039;-74
2021/06/17 10:24:23;;;;;;;4.57;1.42;;;;;;;28.67;45.30;94939.53;4898562;29;20027;-79
2021/06/17 10:26:52;;;;;;;1.70;1.60;;;;;;;28.20;46.82;94954.34;4896961;29;20057;-73
2021/06/17 10:29:26;;;;;;;2.08;1.75;;;;;;;28.15;48.01;94950.94;4945056;29;20421;-78
2021/06/17 10:31:55;;;;;;;1.83;1.73;;;;;;;28.60;47.27;94939.81;4945231;29;20150;-74
2021/06/17 10:34:28;;;;;;;2.05;1.80;;;;;;;29.34;48.17;94942.97;4912094;29;20046;-75
2021/06/17 10:37:10;;;;;;;1.73;1.63;;;;;;;28.36;46.80;94939.00;4928010;29;20039;-77
2021/06/17 10:39:37;;;;;;;3.30;1.65;;;;;;;28.01;45.99;94942.75;4946851;29;20031;-77
2021/06/17 10:42:05;;;;;;;3.90;2.45;;;;;;;28.04;51.11;94947.53;4927359;29;20504;-71
2021/06/17 10:44:35;;;;;;;3.53;1.70;;;;;;;28.16;50.79;94942.66;4941597;29;20514;-71
2021/06/17 10:47:00;;;;;;;1.90;1.70;;;;;;;28.66;46.52;94941.38;4943879;29;20556;-71
2021/06/17 10:49:51;;;;;;;1.58;1.33;;;;;;;29.46;44.64;94914.75;4914443;29;20023;-78
2021/06/17 10:52:25;;;;;;;1.88;1.77;;;;;;;28.66;47.81;94935.25;4944898;29;20043;-75
2021/06/17 10:55:01;;;;;;;1.60;1.50;;;;;;;29.32;47.13;94921.09;4934907;29;20114;-74
2021/06/17 11:00:25;;;;;;;1.48;1.38;;;;;;;28.04;46.96;94928.09;4942035;29;20047;-73
2021/06/17 11:03:06;;;;;;;3.38;1.67;;;;;;;28.50;49.54;94926.59;4931310;29;20036;-75
2021/06/17 11:05:31;;;;;;;1.60;1.50;;;;;;;28.11;48.83;94921.41;4916343;29;20031;-82
2021/06/17 11:08:19;;;;;;;1.67;1.58;;;;;;;27.95;45.33;94921.78;4932202;29;20052;-76
2021/06/17 11:11:06;;;;;;;3.67;1.60;;;;;;;28.47;46.91;94919.16;4932830;29;20365;-81
2021/06/17 11:13:36;;;;;;;1.50;1.30;;;;;;;29.24;47.28;94911.84;4915916;29;20103;-80
2021/06/17 11:16:05;;;;;;;1.70;1.50;;;;;;;28.91;42.42;94902.16;4899792;29;20588;-79
2021/06/17 11:21:31;;;;;;;1.98;1.77;;;;;;;27.97;54.80;94909.75;4931972;29;20039;-77
2021/06/17 11:24:21;;;;;;;1.50;1.40;;;;;;;27.34;52.91;94906.25;4932866;29;20035;-75
2021/06/17 11:26:48;;;;;;;4.28;1.52;;;;;;;27.28;53.71;94902.03;4918380;29;20075;-79
2021/06/17 11:29:15;;;;;;;1.70;1.60;;;;;;;28.07;53.03;94914.22;4931917;29;20082;-72
2021/06/17 11:31:48;;;;;;;2.83;1.95;;;;;;;28.52;52.37;94907.63;4915222;29;20032;-72
2021/06/17 11:34:15;;;;;;;1.63;1.50;;;;;;;28.34;51.11;94914.50;4898957;29;20032;-74
2021/06/17 11:36:53;;;;;;;1.50;1.35;;;;;;;27.80;49.52;94908.59;4915564;29;20039;-72
2021/06/17 11:39:28;;;;;;;1.70;1.40;;;;;;;27.87;51.62;94907.19;4914817;29;20051;-71
2021/06/17 11:41:55;;;;;;;3.80;1.40;;;;;;;27.62;52.78;94905.53;4899697;29;20032;-74
2021/06/17 11:44:25;;;;;;;1.48;1.38;;;;;;;27.72;51.80;94902.78;4883618;29;20062;-72
2021/06/17 11:47:03;;;;;;;6.93;1.65;;;;;;;27.42;54.25;94902.97;4899884;29;20401;-74
2021/06/17 11:49:30;;;;;;;3.75;1.40;;;;;;;27.54;51.66;94900.81;4931989;29;20058;-76
2021/06/17 11:51:56;;;;;;;2.20;1.30;;;;;;;27.55;53.23;94886.41;4915097;29;20114;-71
2021/06/17 11:54:22;;;;;;;1.40;1.30;;;;;;;28.38;50.15;94888.88;4914636;29;20124;-72
2021/06/17 11:56:49;;;;;;;1.20;1.10;;;;;;;27.99;50.60;94898.84;4899468;29;20051;-73
2021/06/17 11:59:26;;;;;;;1.75;1.50;;;;;;;27.04;51.46;94903.75;4914319;29;20107;-72
2021/06/17 12:02:18;;;;;;;1.05;1.05;;;;;;;27.10;52.68;94911.44;4914704;29;20031;-72
2021/06/17 12:05:04;;;;;;;1.40;1.30;;;;;;;27.39;54.57;94903.53;4950368;29;20035;-74
2021/06/17 12:07:49;;;;;;;0.90;0.90;;;;;;;27.55;49.38;94885.63;4935956;29;20031;-72
2021/06/17 12:10:24;;;;;;;4.00;1.52;;;;;;;27.01;50.63;94886.47;4934452;29;20031;-71
2021/06/17 12:13:00;;;;;;;1.38;1.27;;;;;;;26.59;49.42;94888.78;4932983;29;20484;-70
2021/06/17 12:15:26;;;;;;;1.40;1.30;;;;;;;27.12;50.68;94889.88;4917605;29;20114;-78
2021/06/17 12:17:53;;;;;;;1.63;1.40;;;;;;;27.05;51.37;94889.38;4932797;29;20470;-80
2021/06/17 12:20:26;;;;;;;3.90;1.30;;;;;;;26.93;49.80;94883.63;4901949;29;20528;-78
2021/06/17 12:23:12;;;;;;;4.10;1.45;;;;;;;27.00;49.75;94886.78;4933825;29;20024;-71
2021/06/17 12:25:38;;;;;;;3.78;1.27;;;;;;;26.99;49.53;94890.50;4901283;29;20041;-79
2021/06/17 12:28:08;;;;;;;1.63;1.30;;;;;;;26.78;47.71;94875.69;4951183;28;20110;-77
2021/06/17 12:30:47;;;;;;;3.90;1.40;;;;;;;26.97;48.77;94871.38;4901162;29;20600;-82
2021/06/17 12:33:16;;;;;;;;;;;;;;;26.97;46.16;94874.03;4923961;29;20028;-82
2021/06/17 12:35:54;;;;;;;1.67;1.40;;;;;;;26.76;48.02;94865.31;4933597;29;19974;-80
2021/06/17 12:38:37;;;;;;;1.25;1.15;;;;;;;27.05;50.30;94866.25;4915451;29;20039;-79
2021/06/17 12:41:16;;;;;;;1.50;1.40;;;;;;;27.12;49.64;94877.38;4916800;29;20055;-73
2021/06/17 12:43:48;;;;;;;4.20;1.35;;;;;;;27.17;49.65;94871.22;4926087;29;20136;-87
2021/06/17 12:46:15;;;;;;;1.63;1.52;;;;;;;26.70;51.00;94877.84;4929384;29;20115;-84
2021/06/17 12:54:08;;;;;;;1.63;1.40;;;;;;;26.51;48.92;94868.09;4944385;29;20033;-75
2021/06/17 12:56:34;;;;;;;1.35;1.30;;;;;;;26.85;51.72;94884.16;4912850;29;20062;-72
2021/06/17 12:59:00;;;;;;;1.70;1.42;;;;;;;26.70;52.05;94877.03;4929003;29;20485;-75
2021/06/17 13:01:25;;;;;;;1.38;1.27;;;;;;;26.72;48.72;94882.88;4932371;29;20027;-79
2021/06/17 13:03:51;;;;;;;1.60;1.50;;;;;;;26.81;49.35;94880.50;4916524;29;20042;-87
2021/06/17 13:06:33;;;;;;;1.35;1.25;;;;;;;27.17;51.79;94876.53;4932780;29;20035;-80
2021/06/17 13:08:59;;;;;;;1.95;1.52;;;;;;;27.27;51.08;94875.69;4916503;29;20047;-75
2021/06/17 13:11:31;;;;;;;1.70;1.55;;;;;;;27.18;53.31;94878.94;4932458;29;20046;-81
2021/06/17 13:14:04;;;;;;;1.52;1.42;;;;;;;27.04;52.80;94877.16;4917173;29;20064;-88
2021/06/17 13:16:32;;;;;;;1.40;1.30;;;;;;;27.17;50.01;94879.19;4949471;29;20118;-83
2021/06/17 13:18:57;;;;;;;1.20;1.10;;;;;;;26.90;50.33;94871.66;4932884;29;20035;-81
2021/06/17 13:21:23;;;;;;;1.25;1.15;;;;;;;26.88;49.50;94865.00;4932483;29;20540;-86
2021/06/17 13:23:48;;;;;;;1.60;1.50;;;;;;;27.10;51.03;94860.88;4932772;29;20032;-83
2021/06/17 13:26:14;;;;;;;1.60;1.50;;;;;;;26.90;50.72;94861.03;4931839;29;20031;-75
2021/06/17 13:28:41;;;;;;;2.20;1.58;;;;;;;26.52;52.85;94851.84;4931952;29;20127;-74
2021/06/17 13:31:11;;;;;;;5.50;1.45;;;;;;;26.40;50.71;94856.69;4932118;29;20595;-80
2021/06/17 13:33:37;;;;;;;1.48;1.38;;;;;;;26.71;52.06;94852.06;4932382;29;20034;-78
2021/06/17 13:36:02;;;;;;;3.38;1.27;;;;;;;26.77;53.49;94856.28;4916379;29;20045;-76
2021/06/17 13:38:28;;;;;;;5.70;1.20;;;;;;;26.80;53.98;94849.63;4931919;29;20035;-86
2021/06/17 13:40:54;;;;;;;1.10;1.00;;;;;;;26.78;52.25;94849.09;4949197;29;20617;-75
2021/06/17 13:43:20;;;;;;;1.48;1.33;;;;;;;26.44;53.13;94849.78;4900047;29;20571;-79
2021/06/17 13:45:46;;;;;;;1.63;1.40;;;;;;;26.52;54.40;94854.50;4931769;29;20075;-82
2021/06/17 13:48:11;;;;;;;1.55;1.45;;;;;;;26.68;52.16;94863.25;4915941;29;20037;-82
2021/06/17 13:50:37;;;;;;;1.40;1.20;;;;;;;26.56;51.08;94866.19;4949340;29;20113;-80
2021/06/17 13:53:06;;;;;;;5.78;1.20;;;;;;;26.57;50.54;94861.69;4932703;29;20058;-90
2021/06/17 13:55:31;;;;;;;1.50;1.07;;;;;;;26.87;50.42;94871.41;4917563;29;20032;-84
2021/06/17 13:57:57;;;;;;;1.38;1.27;;;;;;;26.83;50.12;94870.38;4931764;29;20024;-78
2021/06/17 14:00:23;;;;;;;1.67;1.30;;;;;;;27.03;50.85;94863.09;4931402;29;20038;-83
2021/06/17 14:02:49;;;;;;;1.30;1.20;;;;;;;27.02;47.08;94864.16;4915597;29;20532;-76
2021/06/17 14:05:15;;;;;;;1.67;0.90;;;;;;;27.18;47.23;94867.50;4899869;29;20031;-76
2021/06/17 14:07:41;;;;;;;1.33;1.17;;;;;;;26.89;46.72;94859.44;4915507;29;20106;-77
2021/06/17 14:10:07;;;;;;;2.15;1.15;;;;;;;26.72;46.96;94869.56;4931452;29;20034;-75
2021/06/17 14:12:33;;;;;;;1.52;0.98;;;;;;;26.92;46.41;94871.38;4899860;29;20038;-74
2021/06/17 14:14:59;;;;;;;2.83;1.30;;;;;;;26.99;46.58;94874.53;4931570;29;20450;-79
2021/06/17 14:17:25;;;;;;;4.10;2.15;;;;;;;26.81;46.86;94872.50;4915484;29;20102;-81
2021/06/17 14:19:50;;;;;;;1.40;1.08;;;;;;;26.78;50.21;94870.38;4916206;29;20043;-85
2021/06/17 14:22:16;;;;;;;2.28;1.95;;;;;;;26.62;51.19;94859.78;4932222;29;20039;-80
2021/06/17 14:24:41;;;;;;;2.47;1.10;;;;;;;26.56;47.66;94858.22;4932791;29;20030;-89
2021/06/17 14:27:07;;;;;;;1.13;1.00;;;;;;;26.45;48.65;94859.34;4932260;29;20030;-87
2021/06/17 14:29:33;;;;;;;1.30;1.20;;;;;;;26.49;48.19;94848.97;4932471;29;20527;-88
2021/06/17 14:31:58;;;;;;;1.20;1.10;;;;;;;26.40;48.92;94850.59;4913493;29;20031;-80
2021/06/17 14:34:25;;;;;;;1.95;1.67;;;;;;;26.49;48.70;94846.31;4927468;29;20477;-87
2021/06/17 14:36:50;;;;;;;1.30;1.20;;;;;;;26.37;50.15;94845.81;4914811;29;20097;-77
2021/06/17 14:39:16;;;;;;;1.70;1.00;;;;;;;26.59;51.10;94847.03;4914656;29;20512;-82
2021/06/17 14:41:43;;;;;;;1.30;1.20;;;;;;;26.59;50.50;94855.03;4913318;29;20035;-88
2021/06/17 14:44:11;;;;;;;1.40;1.30;;;;;;;26.44;49.11;94851.63;4911795;29;20093;-86
2021/06/17 14:46:38;;;;;;;1.25;1.15;;;;;;;26.70;49.86;94853.13;4928268;29;20585;-89
2021/06/17 14:49:04;;;;;;;1.20;1.10;;;;;;;26.72;51.02;94849.13;4915604;29;20042;-86
2021/06/17 14:51:29;;;;;;;1.50;1.40;;;;;;;27.02;49.02;94853.50;4911793;29;20062;-76
2021/06/17 14:53:55;;;;;;;1.40;1.30;;;;;;;26.84;50.33;94851.50;4914153;29;20077;-88
2021/06/17 14:56:20;;;;;;;2.28;1.10;;;;;;;26.99;49.06;94853.25;4915523;29;20082;-80
2021/06/17 14:58:46;;;;;;;1.25;1.15;;;;;;;26.85;46.97;94861.03;4912492;29;20109;-75
2021/06/17 15:01:11;;;;;;;1.10;1.00;;;;;;;26.69;46.87;94859.50;4929843;29;20516;-75
2021/06/17 15:03:37;;;;;;;1.02;0.93;;;;;;;26.66;47.72;94860.03;4948581;29;20074;-80
2021/06/17 15:06:02;;;;;;;1.30;1.20;;;;;;;26.91;48.67;94856.47;4930868;29;20023;-84
2021/06/17 15:08:28;;;;;;;1.88;1.55;;;;;;;26.61;47.57;94866.19;4932830;29;20130;-85
2021/06/17 15:10:54;;;;;;;1.58;1.48;;;;;;;26.03;46.32;94861.56;4916577;29;20106;-86
2021/06/17 15:13:19;;;;;;;1.80;1.30;;;;;;;25.72;46.66;94868.00;4900118;29;20465;-84
2021/06/17 15:15:45;;;;;;;1.20;1.10;;;;;;;25.55;49.88;94863.75;4915155;29;20083;-83
2021/06/17 15:18:12;;;;;;;1.65;1.30;;;;;;;25.31;52.08;94857.34;4947777;28;20031;-79
2021/06/17 15:20:41;;;;;;;3.17;1.50;;;;;;;25.28;52.85;94862.38;4914816;29;20129;-83
2021/06/17 15:23:07;;;;;;;1.58;1.13;;;;;;;25.29;55.10;94859.47;4914743;29;20031;-84
2021/06/17 15:25:32;;;;;;;1.35;1.20;;;;;;;25.22;55.46;94866.06;4930765;29;20138;-83
2021/06/17 15:27:58;;;;;;;2.92;1.42;;;;;;;24.94;56.18;94854.91;4914786;29;20024;-81
2021/06/17 15:30:23;;;;;;;1.75;1.65;;;;;;;24.77;58.30;94864.09;4931159;29;20019;-78
2021/06/17 15:32:49;;;;;;;1.30;1.20;;;;;;;24.63;59.02;94869.88;4914742;29;20031;-80
2021/06/17 15:35:14;;;;;;;2.67;2.15;;;;;;;24.73;59.33;94876.28;4898474;29;20035;-82
2021/06/17 15:37:40;;;;;;;2.22;1.50;;;;;;;24.78;59.98;94869.16;4915125;29;20090;-83
2021/06/17 15:40:06;;;;;;;2.03;1.38;;;;;;;24.79;59.37;94872.59;4898317;29;20062;-80
2021/06/17 15:42:32;;;;;;;2.38;1.40;;;;;;;24.75;59.00;94868.88;4931196;29;20023;-82
2021/06/17 15:44:57;;;;;;;1.75;1.60;;;;;;;24.78;59.27;94871.81;4914308;29;20034;-81
2021/06/17 15:47:23;;;;;;;1.55;1.45;;;;;;;24.56;59.82;94879.94;4914893;29;20378;-79
2021/06/17 15:49:48;;;;;;;2.08;1.48;;;;;;;24.47;61.06;94875.38;4930693;28;20042;-82
2021/06/17 15:52:14;;;;;;;1.50;1.40;;;;;;;24.50;60.35;94878.31;4902319;29;20543;-83
2021/06/17 15:54:39;;;;;;;1.40;1.30;;;;;;;24.53;61.23;94877.78;4933679;29;20527;-82
2021/06/17 15:57:06;;;;;;;3.10;1.88;;;;;;;24.47;61.15;94876.19;4932922;29;20027;-82
2021/06/17 15:59:31;;;;;;;2.08;1.60;;;;;;;24.49;61.06;94868.78;4918051;28;20046;-82
2021/06/17 16:01:58;;;;;;;2.53;1.73;;;;;;;24.53;64.98;94869.06;4917291;29;20039;-81
2021/06/17 16:04:23;;;;;;;1.88;1.30;;;;;;;24.35;66.39;94856.25;4934816;29;20082;-84
2021/06/17 16:06:50;;;;;;;5.65;2.30;;;;;;;24.36;67.05;94853.38;4933442;29;20023;-83
2021/06/17 16:09:16;;;;;;;4.25;2.40;;;;;;;23.94;66.57;94860.53;4917639;29;20055;-81
2021/06/17 16:11:41;;;;;;;4.28;1.80;;;;;;;23.63;68.03;94852.38;4902058;29;20583;-83
2021/06/17 16:14:07;;;;;;;2.97;1.27;;;;;;;23.75;69.37;94857.50;4917718;29;20031;-82
2021/06/17 16:16:32;;;;;;;2.83;1.77;;;;;;;23.86;68.48;94863.66;4901940;29;20035;-76
2021/06/17 16:18:58;;;;;;;2.88;1.80;;;;;;;23.60;69.22;94868.75;4951251;29;20387;-80
2021/06/17 16:21:23;;;;;;;1.92;1.70;;;;;;;23.49;69.65;94871.59;4916991;29;20023;-79
2021/06/17 16:23:49;;;;;;;1.90;1.67;;;;;;;23.35;70.45;94875.66;4901397;29;20043;-84
2021/06/17 16:26:15;;;;;;;2.45;2.22;;;;;;;23.24;71.20;94882.72;4933581;29;20425;-79
2021/06/17 16:28:41;;;;;;;2.30;2.10;;;;;;;23.23;71.59;94889.06;4932581;29;20122;-76
2021/06/17 16:31:06;;;;;;;2.95;2.38;;;;;;;23.14;72.21;94895.84;4917538;29;20054;-77
2021/06/17 16:33:33;;;;;;;4.97;2.55;;;;;;;23.23;71.73;94899.63;4932903;29;20031;-76
2021/06/17 16:35:59;;;;;;;2.97;2.45;;;;;;;23.41;71.22;94896.66;4901469;29;20102;-74
2021/06/17 16:38:24;;;;;;;2.80;1.80;;;;;;;23.49;71.85;94906.78;4932627;29;20485;-75
2021/06/17 16:40:50;;;;;;;2.58;1.98;;;;;;;23.53;71.49;94897.28;4932493;29;20094;-77
2021/06/17 16:43:15;;;;;;;3.25;2.58;;;;;;;23.43;71.47;94899.84;4950429;29;20490;-74
2021/06/17 16:45:41;;;;;;;2.35;2.15;;;;;;;23.34;71.83;94911.09;4931066;29;20572;-73
2021/06/17 16:48:06;;;;;;;2.38;1.98;;;;;;;23.20;71.74;94909.91;4931471;29;20027;-74
2021/06/17 16:50:32;;;;;;;3.45;2.13;;;;;;;23.15;70.78;94913.28;4915484;29;20047;-75
2021/06/17 16:52:57;;;;;;;2.17;1.98;;;;;;;23.07;69.59;94913.75;4931690;29;20046;-75
2021/06/17 16:55:23;;;;;;;2.03;1.92;;;;;;;22.99;69.84;94922.91;4931013;29;20121;-78
2021/06/17 16:57:48;;;;;;;3.30;2.20;;;;;;;22.88;70.58;94923.84;4930293;29;20409;-78
2021/06/17 17:00:18;;;;;;;6.03;2.47;;;;;;;22.74;70.63;94927.09;4932597;29;20054;-77